sensor_id;sensor_type;location;lat;lon;timestamp;temperature;humidity
63802;DHT22;49949;43.060;25.624;2022-07-09T00:01:37;18.70;99.90
63802;DHT22;49949;43.060;25.624;2022-07-09T00:04:03;18.60;99.90
63802;DHT22;49949;43.060;25.624;2022-07-09T00:06:29;18.60;99.90
63802;DHT22;49949;43.060;25.624;2022-07-09T00:08:57;18.60;99.90
63802;DHT22;49949;43.060;25.624;2022-07-09T00:11:23;18.60;99.90
63802;DHT22;49949;43.060;25.624;2022-07-09T00:13:49;18.70;99.90
63802;DHT22;49949;43.060;25.624;2022-07-09T00:16:14;18.60;99.90
63802;DHT22;49949;43.060;25.624;2022-07-09T00:18:40;18.60;99.90
63802;DHT22;49949;43.060;25.624;2022-07-09T00:21:06;18.50;99.90
63802;DHT22;49949;43.060;25.624;2022-07-09T00:23:32;18.50;99.90
63802;DHT22;49949;43.060;25.624;2022-07-09T00:25:59;18.50;99.90
63802;DHT22;49949;43.060;25.624;2022-07-09T00:28:24;18.50;99.90
63802;DHT22;49949;43.060;25.624;2022-07-09T00:30:50;18.50;99.90
63802;DHT22;49949;43.060;25.624;2022-07-09T00:33:16;18.40;99.90
63802;DHT22;49949;43.060;25.624;2022-07-09T00:35:41;18.40;99.90
63802;DHT22;49949;43.060;25.624;2022-07-09T00:38:08;18.30;99.90
63802;DHT22;49949;43.060;25.624;2022-07-09T00:40:33;18.30;99.90
63802;DHT22;49949;43.060;25.624;2022-07-09T00:43:00;18.30;99.90
63802;DHT22;49949;43.060;25.624;2022-07-09T00:45:26;18.30;99.90
63802;DHT22;49949;43.060;25.624;2022-07-09T00:47:51;18.30;99.90
63802;DHT22;49949;43.060;25.624;2022-07-09T00:50:18;18.20;99.90
63802;DHT22;49949;43.060;25.624;2022-07-09T00:52:44;18.10;99.90
63802;DHT22;49949;43.060;25.624;2022-07-09T00:55:11;18.10;99.90
63802;DHT22;49949;43.060;25.624;2022-07-09T00:57:38;18.10;99.90
63802;DHT22;49949;43.060;25.624;2022-07-09T01:00:05;18.00;99.90
63802;DHT22;49949;43.060;25.624;2022-07-09T01:02:31;17.90;99.90
63802;DHT22;49949;43.060;25.624;2022-07-09T01:04:57;17.90;99.90
63802;DHT22;49949;43.060;25.624;2022-07-09T01:07:23;17.90;99.90
63802;DHT22;49949;43.060;25.624;2022-07-09T01:09:48;17.90;99.90
63802;DHT22;49949;43.060;25.624;2022-07-09T01:12:14;17.90;99.90
63802;DHT22;49949;43.060;25.624;2022-07-09T01:14:40;18.00;99.90
63802;DHT22;49949;43.060;25.624;2022-07-09T01:17:06;18.00;99.90
63802;DHT22;49949;43.060;25.624;2022-07-09T01:19:33;18.10;99.90
63802;DHT22;49949;43.060;25.624;2022-07-09T01:21:59;18.00;99.90
63802;DHT22;49949;43.060;25.624;2022-07-09T01:24:26;18.00;99.90
63802;DHT22;49949;43.060;25.624;2022-07-09T01:26:52;18.00;99.90
63802;DHT22;49949;43.060;25.624;2022-07-09T01:29:18;17.90;99.90
63802;DHT22;49949;43.060;25.624;2022-07-09T01:31:44;17.90;99.90
63802;DHT22;49949;43.060;25.624;2022-07-09T01:34:10;17.90;99.90
63802;DHT22;49949;43.060;25.624;2022-07-09T01:36:36;17.80;99.90
63802;DHT22;49949;43.060;25.624;2022-07-09T01:39:02;17.90;99.90
63802;DHT22;49949;43.060;25.624;2022-07-09T01:41:28;17.90;99.90
63802;DHT22;49949;43.060;25.624;2022-07-09T01:43:53;18.00;99.90
63802;DHT22;49949;43.060;25.624;2022-07-09T01:46:19;18.00;99.90
63802;DHT22;49949;43.060;25.624;2022-07-09T01:48:45;18.10;99.90
63802;DHT22;49949;43.060;25.624;2022-07-09T01:51:12;18.10;99.90
63802;DHT22;49949;43.060;25.624;2022-07-09T01:53:38;18.10;99.90
63802;DHT22;49949;43.060;25.624;2022-07-09T01:56:09;18.10;99.90
63802;DHT22;49949;43.060;25.624;2022-07-09T01:58:35;18.00;99.90
63802;DHT22;49949;43.060;25.624;2022-07-09T02:01:02;18.00;99.90
63802;DHT22;49949;43.060;25.624;2022-07-09T02:03:29;17.90;99.90
63802;DHT22;49949;43.060;25.624;2022-07-09T02:05:54;17.90;99.90
63802;DHT22;49949;43.060;25.624;2022-07-09T02:08:21;17.80;99.90
63802;DHT22;49949;43.060;25.624;2022-07-09T02:10:48;17.80;99.90
63802;DHT22;49949;43.060;25.624;2022-07-09T02:13:14;17.90;99.90
63802;DHT22;49949;43.060;25.624;2022-07-09T02:15:40;17.90;99.90
63802;DHT22;49949;43.060;25.624;2022-07-09T02:18:05;17.90;99.90
63802;DHT22;49949;43.060;25.624;2022-07-09T02:20:31;17.90;99.90
63802;DHT22;49949;43.060;25.624;2022-07-09T02:22:58;17.90;99.90
63802;DHT22;49949;43.060;25.624;2022-07-09T02:25:23;17.90;99.90
63802;DHT22;49949;43.060;25.624;2022-07-09T02:27:49;18.00;99.90
63802;DHT22;49949;43.060;25.624;2022-07-09T02:30:15;18.10;99.90
63802;DHT22;49949;43.060;25.624;2022-07-09T02:32:40;18.00;99.90
63802;DHT22;49949;43.060;25.624;2022-07-09T02:35:07;18.00;99.90
63802;DHT22;49949;43.060;25.624;2022-07-09T02:37:33;17.90;99.90
63802;DHT22;49949;43.060;25.624;2022-07-09T02:39:59;17.90;99.90
63802;DHT22;49949;43.060;25.624;2022-07-09T02:42:25;17.80;99.90
63802;DHT22;49949;43.060;25.624;2022-07-09T02:44:51;17.80;99.90
63802;DHT22;49949;43.060;25.624;2022-07-09T02:47:16;17.80;99.90
63802;DHT22;49949;43.060;25.624;2022-07-09T02:49:42;17.80;99.90
63802;DHT22;49949;43.060;25.624;2022-07-09T02:52:08;17.80;99.90
63802;DHT22;49949;43.060;25.624;2022-07-09T02:54:33;17.80;99.90
63802;DHT22;49949;43.060;25.624;2022-07-09T02:57:00;17.90;99.90
63802;DHT22;49949;43.060;25.624;2022-07-09T02:59:26;17.90;99.90
63802;DHT22;49949;43.060;25.624;2022-07-09T03:01:52;18.00;99.90
63802;DHT22;49949;43.060;25.624;2022-07-09T03:04:18;18.00;99.90
63802;DHT22;49949;43.060;25.624;2022-07-09T03:06:43;18.00;99.90
63802;DHT22;49949;43.060;25.624;2022-07-09T03:09:09;18.00;99.90
63802;DHT22;49949;43.060;25.624;2022-07-09T03:11:35;17.90;99.90
63802;DHT22;49949;43.060;25.624;2022-07-09T03:14:01;17.90;99.90
63802;DHT22;49949;43.060;25.624;2022-07-09T03:16:26;17.90;99.90
63802;DHT22;49949;43.060;25.624;2022-07-09T03:18:52;17.90;99.90
63802;DHT22;49949;43.060;25.624;2022-07-09T03:21:18;17.90;99.90
63802;DHT22;49949;43.060;25.624;2022-07-09T03:23:43;17.90;99.90
63802;DHT22;49949;43.060;25.624;2022-07-09T03:26:09;18.00;99.90
63802;DHT22;49949;43.060;25.624;2022-07-09T03:28:35;18.10;99.90
63802;DHT22;49949;43.060;25.624;2022-07-09T03:31:01;18.30;99.90
63802;DHT22;49949;43.060;25.624;2022-07-09T03:33:27;18.40;99.90
63802;DHT22;49949;43.060;25.624;2022-07-09T03:35:54;18.60;99.90
63802;DHT22;49949;43.060;25.624;2022-07-09T03:38:20;18.70;99.90
63802;DHT22;49949;43.060;25.624;2022-07-09T03:40:46;18.60;99.90
63802;DHT22;49949;43.060;25.624;2022-07-09T03:43:12;18.70;99.90
63802;DHT22;49949;43.060;25.624;2022-07-09T03:45:38;18.90;99.90
63802;DHT22;49949;43.060;25.624;2022-07-09T03:48:04;19.10;99.90
63802;DHT22;49949;43.060;25.624;2022-07-09T03:50:30;19.40;99.90
63802;DHT22;49949;43.060;25.624;2022-07-09T03:52:56;19.50;99.90
63802;DHT22;49949;43.060;25.624;2022-07-09T03:55:23;19.80;99.90
63802;DHT22;49949;43.060;25.624;2022-07-09T03:57:49;20.10;99.90
63802;DHT22;49949;43.060;25.624;2022-07-09T04:00:15;20.20;99.90
63802;DHT22;49949;43.060;25.624;2022-07-09T04:02:41;20.20;99.90
63802;DHT22;49949;43.060;25.624;2022-07-09T04:05:08;20.20;99.90
63802;DHT22;49949;43.060;25.624;2022-07-09T04:07:35;20.20;99.90
63802;DHT22;49949;43.060;25.624;2022-07-09T04:10:01;20.20;99.90
63802;DHT22;49949;43.060;25.624;2022-07-09T04:12:27;20.10;99.90
63802;DHT22;49949;43.060;25.624;2022-07-09T04:14:53;20.10;99.90
63802;DHT22;49949;43.060;25.624;2022-07-09T04:17:18;20.00;99.90
63802;DHT22;49949;43.060;25.624;2022-07-09T04:19:44;20.00;99.90
63802;DHT22;49949;43.060;25.624;2022-07-09T04:22:10;19.80;99.90
63802;DHT22;49949;43.060;25.624;2022-07-09T04:24:35;19.80;99.90
63802;DHT22;49949;43.060;25.624;2022-07-09T04:27:01;19.80;99.90
63802;DHT22;49949;43.060;25.624;2022-07-09T04:29:27;19.80;99.90
63802;DHT22;49949;43.060;25.624;2022-07-09T04:31:52;19.90;99.90
63802;DHT22;49949;43.060;25.624;2022-07-09T04:34:18;19.90;99.90
63802;DHT22;49949;43.060;25.624;2022-07-09T04:36:44;20.00;99.90
63802;DHT22;49949;43.060;25.624;2022-07-09T04:39:09;20.00;99.90
63802;DHT22;49949;43.060;25.624;2022-07-09T04:41:35;20.00;99.90
63802;DHT22;49949;43.060;25.624;2022-07-09T04:44:02;20.10;99.90
63802;DHT22;49949;43.060;25.624;2022-07-09T04:46:28;20.20;99.90
63802;DHT22;49949;43.060;25.624;2022-07-09T04:48:56;20.30;99.90
63802;DHT22;49949;43.060;25.624;2022-07-09T04:51:22;20.40;99.90
63802;DHT22;49949;43.060;25.624;2022-07-09T04:53:47;20.40;99.90
63802;DHT22;49949;43.060;25.624;2022-07-09T04:56:13;20.50;99.90
63802;DHT22;49949;43.060;25.624;2022-07-09T04:58:39;20.60;99.90
63802;DHT22;49949;43.060;25.624;2022-07-09T05:01:17;20.70;99.90
63802;DHT22;49949;43.060;25.624;2022-07-09T05:03:43;20.70;99.90
63802;DHT22;49949;43.060;25.624;2022-07-09T05:06:09;20.70;99.90
63802;DHT22;49949;43.060;25.624;2022-07-09T05:08:35;20.80;99.90
63802;DHT22;49949;43.060;25.624;2022-07-09T05:11:01;20.90;99.90
63802;DHT22;49949;43.060;25.624;2022-07-09T05:13:26;20.90;99.90
63802;DHT22;49949;43.060;25.624;2022-07-09T05:15:52;21.00;99.90
63802;DHT22;49949;43.060;25.624;2022-07-09T05:18:18;21.00;99.90
63802;DHT22;49949;43.060;25.624;2022-07-09T05:20:43;21.10;99.90
63802;DHT22;49949;43.060;25.624;2022-07-09T05:23:09;21.20;99.90
63802;DHT22;49949;43.060;25.624;2022-07-09T05:25:35;21.30;99.90
63802;DHT22;49949;43.060;25.624;2022-07-09T05:28:00;21.50;99.90
63802;DHT22;49949;43.060;25.624;2022-07-09T05:30:26;21.90;99.90
63802;DHT22;49949;43.060;25.624;2022-07-09T05:32:52;22.10;99.50
63802;DHT22;49949;43.060;25.624;2022-07-09T05:35:18;21.90;98.80
63802;DHT22;49949;43.060;25.624;2022-07-09T05:37:44;22.00;98.80
63802;DHT22;49949;43.060;25.624;2022-07-09T05:40:10;22.40;96.60
63802;DHT22;49949;43.060;25.624;2022-07-09T05:42:36;22.60;95.50
63802;DHT22;49949;43.060;25.624;2022-07-09T05:45:02;22.70;94.60
63802;DHT22;49949;43.060;25.624;2022-07-09T05:47:28;23.00;93.90
63802;DHT22;49949;43.060;25.624;2022-07-09T05:49:54;23.00;93.50
63802;DHT22;49949;43.060;25.624;2022-07-09T05:52:19;23.00;93.00
63802;DHT22;49949;43.060;25.624;2022-07-09T05:54:45;23.10;93.20
63802;DHT22;49949;43.060;25.624;2022-07-09T05:57:11;23.10;93.30
63802;DHT22;49949;43.060;25.624;2022-07-09T05:59:36;23.30;92.10
63802;DHT22;49949;43.060;25.624;2022-07-09T06:02:02;23.40;92.00
63802;DHT22;49949;43.060;25.624;2022-07-09T06:04:30;23.60;90.20
63802;DHT22;49949;43.060;25.624;2022-07-09T06:06:56;23.60;89.20
63802;DHT22;49949;43.060;25.624;2022-07-09T06:09:22;23.80;89.00
63802;DHT22;49949;43.060;25.624;2022-07-09T06:11:48;24.50;88.30
63802;DHT22;49949;43.060;25.624;2022-07-09T06:14:13;24.10;85.50
63802;DHT22;49949;43.060;25.624;2022-07-09T06:16:39;23.60;83.80
63802;DHT22;49949;43.060;25.624;2022-07-09T06:19:04;23.60;86.70
63802;DHT22;49949;43.060;25.624;2022-07-09T06:21:30;23.80;86.00
63802;DHT22;49949;43.060;25.624;2022-07-09T06:23:56;24.10;86.20
63802;DHT22;49949;43.060;25.624;2022-07-09T06:26:22;24.20;81.10
63802;DHT22;49949;43.060;25.624;2022-07-09T06:28:47;24.00;80.60
63802;DHT22;49949;43.060;25.624;2022-07-09T06:31:13;23.90;80.90
63802;DHT22;49949;43.060;25.624;2022-07-09T06:33:39;24.00;79.70
63802;DHT22;49949;43.060;25.624;2022-07-09T06:36:05;24.00;77.60
63802;DHT22;49949;43.060;25.624;2022-07-09T06:38:31;23.90;79.30
63802;DHT22;49949;43.060;25.624;2022-07-09T06:40:56;24.10;78.20
63802;DHT22;49949;43.060;25.624;2022-07-09T06:43:22;24.50;77.20
63802;DHT22;49949;43.060;25.624;2022-07-09T06:45:48;24.70;77.50
63802;DHT22;49949;43.060;25.624;2022-07-09T06:48:14;24.70;76.70
63802;DHT22;49949;43.060;25.624;2022-07-09T06:50:40;24.60;77.50
63802;DHT22;49949;43.060;25.624;2022-07-09T06:53:05;24.60;76.70
63802;DHT22;49949;43.060;25.624;2022-07-09T06:55:31;25.00;75.70
63802;DHT22;49949;43.060;25.624;2022-07-09T06:57:57;24.60;73.20
63802;DHT22;49949;43.060;25.624;2022-07-09T07:00:23;24.50;74.80
63802;DHT22;49949;43.060;25.624;2022-07-09T07:02:49;24.20;76.50
63802;DHT22;49949;43.060;25.624;2022-07-09T07:05:15;24.30;77.20
63802;DHT22;49949;43.060;25.624;2022-07-09T07:07:41;24.20;77.20
63802;DHT22;49949;43.060;25.624;2022-07-09T07:10:07;24.50;76.90
63802;DHT22;49949;43.060;25.624;2022-07-09T07:12:34;24.80;76.10
63802;DHT22;49949;43.060;25.624;2022-07-09T07:15:00;25.00;73.40
63802;DHT22;49949;43.060;25.624;2022-07-09T07:17:26;25.30;73.70
63802;DHT22;49949;43.060;25.624;2022-07-09T07:19:51;25.50;71.30
63802;DHT22;49949;43.060;25.624;2022-07-09T07:22:17;25.80;68.60
63802;DHT22;49949;43.060;25.624;2022-07-09T07:24:43;25.80;68.40
63802;DHT22;49949;43.060;25.624;2022-07-09T07:27:08;25.60;68.30
63802;DHT22;49949;43.060;25.624;2022-07-09T07:29:34;25.40;70.00
63802;DHT22;49949;43.060;25.624;2022-07-09T07:32:00;25.50;67.90
63802;DHT22;49949;43.060;25.624;2022-07-09T07:34:25;25.10;66.80
63802;DHT22;49949;43.060;25.624;2022-07-09T07:36:51;25.00;68.10
63802;DHT22;49949;43.060;25.624;2022-07-09T07:39:18;24.70;69.90
63802;DHT22;49949;43.060;25.624;2022-07-09T07:41:44;24.80;68.40
63802;DHT22;49949;43.060;25.624;2022-07-09T07:44:10;24.90;69.30
63802;DHT22;49949;43.060;25.624;2022-07-09T07:46:36;25.00;68.60
63802;DHT22;49949;43.060;25.624;2022-07-09T07:49:01;25.40;67.80
63802;DHT22;49949;43.060;25.624;2022-07-09T07:51:27;25.90;65.40
63802;DHT22;49949;43.060;25.624;2022-07-09T07:53:53;26.10;66.00
63802;DHT22;49949;43.060;25.624;2022-07-09T07:56:18;26.00;64.60
63802;DHT22;49949;43.060;25.624;2022-07-09T07:58:44;26.10;66.20
63802;DHT22;49949;43.060;25.624;2022-07-09T08:01:10;26.50;64.90
63802;DHT22;49949;43.060;25.624;2022-07-09T08:03:35;26.30;62.90
63802;DHT22;49949;43.060;25.624;2022-07-09T08:06:01;26.00;66.30
63802;DHT22;49949;43.060;25.624;2022-07-09T08:08:27;26.10;64.90
63802;DHT22;49949;43.060;25.624;2022-07-09T08:10:53;26.40;64.60
63802;DHT22;49949;43.060;25.624;2022-07-09T08:13:19;26.60;63.70
63802;DHT22;49949;43.060;25.624;2022-07-09T08:15:45;26.80;63.30
63802;DHT22;49949;43.060;25.624;2022-07-09T08:18:11;27.00;62.50
63802;DHT22;49949;43.060;25.624;2022-07-09T08:20:41;27.00;61.30
63802;DHT22;49949;43.060;25.624;2022-07-09T08:23:07;26.80;60.00
63802;DHT22;49949;43.060;25.624;2022-07-09T08:25:33;26.70;61.00
63802;DHT22;49949;43.060;25.624;2022-07-09T08:27:58;26.80;60.50
63802;DHT22;49949;43.060;25.624;2022-07-09T08:30:24;26.60;59.70
63802;DHT22;49949;43.060;25.624;2022-07-09T08:32:50;26.60;59.10
63802;DHT22;49949;43.060;25.624;2022-07-09T08:35:15;26.20;61.70
63802;DHT22;49949;43.060;25.624;2022-07-09T08:37:41;26.00;62.70
63802;DHT22;49949;43.060;25.624;2022-07-09T08:40:07;26.20;61.60
63802;DHT22;49949;43.060;25.624;2022-07-09T08:42:33;26.40;62.50
63802;DHT22;49949;43.060;25.624;2022-07-09T08:44:59;26.70;61.90
63802;DHT22;49949;43.060;25.624;2022-07-09T08:47:25;27.50;59.30
63802;DHT22;49949;43.060;25.624;2022-07-09T08:49:56;27.00;59.80
63802;DHT22;49949;43.060;25.624;2022-07-09T08:52:23;27.00;59.80
63802;DHT22;49949;43.060;25.624;2022-07-09T08:54:52;27.30;59.10
63802;DHT22;49949;43.060;25.624;2022-07-09T08:57:18;27.60;58.50
63802;DHT22;49949;43.060;25.624;2022-07-09T08:59:43;27.70;57.10
63802;DHT22;49949;43.060;25.624;2022-07-09T09:02:09;27.90;55.30
63802;DHT22;49949;43.060;25.624;2022-07-09T09:04:37;28.00;55.10
63802;DHT22;49949;43.060;25.624;2022-07-09T09:07:15;27.60;56.50
63802;DHT22;49949;43.060;25.624;2022-07-09T09:09:41;27.50;56.80
63802;DHT22;49949;43.060;25.624;2022-07-09T09:12:08;27.40;57.80
63802;DHT22;49949;43.060;25.624;2022-07-09T09:14:34;27.60;57.10
63802;DHT22;49949;43.060;25.624;2022-07-09T09:17:17;27.70;56.10
63802;DHT22;49949;43.060;25.624;2022-07-09T09:19:43;27.40;56.80
63802;DHT22;49949;43.060;25.624;2022-07-09T09:22:09;27.10;58.20
63802;DHT22;49949;43.060;25.624;2022-07-09T09:24:34;27.00;58.10
63802;DHT22;49949;43.060;25.624;2022-07-09T09:27:03;27.20;59.00
63802;DHT22;49949;43.060;25.624;2022-07-09T09:29:29;27.60;56.50
63802;DHT22;49949;43.060;25.624;2022-07-09T09:31:55;27.70;55.20
63802;DHT22;49949;43.060;25.624;2022-07-09T09:34:22;27.70;54.70
63802;DHT22;49949;43.060;25.624;2022-07-09T09:36:50;27.10;56.10
63802;DHT22;49949;43.060;25.624;2022-07-09T09:39:26;26.90;57.80
63802;DHT22;49949;43.060;25.624;2022-07-09T09:41:55;27.00;57.10
63802;DHT22;49949;43.060;25.624;2022-07-09T09:44:23;27.40;55.30
63802;DHT22;49949;43.060;25.624;2022-07-09T09:46:51;27.50;54.40
63802;DHT22;49949;43.060;25.624;2022-07-09T09:49:17;27.50;53.70
63802;DHT22;49949;43.060;25.624;2022-07-09T09:54:24;28.00;53.40
63802;DHT22;49949;43.060;25.624;2022-07-09T09:56:50;28.30;52.50
63802;DHT22;49949;43.060;25.624;2022-07-09T09:59:16;28.10;52.00
63802;DHT22;49949;43.060;25.624;2022-07-09T10:01:43;27.90;50.30
63802;DHT22;49949;43.060;25.624;2022-07-09T10:04:10;28.00;51.50
63802;DHT22;49949;43.060;25.624;2022-07-09T10:06:36;27.70;52.60
63802;DHT22;49949;43.060;25.624;2022-07-09T10:09:06;27.60;51.20
63802;DHT22;49949;43.060;25.624;2022-07-09T10:14:05;27.70;50.50
63802;DHT22;49949;43.060;25.624;2022-07-09T10:16:38;27.40;50.80
63802;DHT22;49949;43.060;25.624;2022-07-09T10:19:05;27.30;50.40
63802;DHT22;49949;43.060;25.624;2022-07-09T10:21:33;27.60;50.70
63802;DHT22;49949;43.060;25.624;2022-07-09T10:23:59;27.80;48.10
63802;DHT22;49949;43.060;25.624;2022-07-09T10:26:45;27.30;48.80
63802;DHT22;49949;43.060;25.624;2022-07-09T10:29:20;28.90;47.90
63802;DHT22;49949;43.060;25.624;2022-07-09T10:31:47;28.60;46.50
63802;DHT22;49949;43.060;25.624;2022-07-09T10:34:36;28.60;45.90
63802;DHT22;49949;43.060;25.624;2022-07-09T10:37:05;28.70;46.40
63802;DHT22;49949;43.060;25.624;2022-07-09T10:39:31;28.50;47.50
63802;DHT22;49949;43.060;25.624;2022-07-09T10:42:00;28.50;47.50
63802;DHT22;49949;43.060;25.624;2022-07-09T10:44:37;28.50;47.80
63802;DHT22;49949;43.060;25.624;2022-07-09T10:47:04;28.20;47.20
63802;DHT22;49949;43.060;25.624;2022-07-09T10:49:30;28.00;47.30
63802;DHT22;49949;43.060;25.624;2022-07-09T10:51:57;27.70;47.50
63802;DHT22;49949;43.060;25.624;2022-07-09T10:54:23;27.70;48.80
63802;DHT22;49949;43.060;25.624;2022-07-09T10:56:49;28.00;47.40
63802;DHT22;49949;43.060;25.624;2022-07-09T10:59:18;28.10;46.40
63802;DHT22;49949;43.060;25.624;2022-07-09T11:01:44;28.30;46.50
63802;DHT22;49949;43.060;25.624;2022-07-09T11:04:10;28.40;45.80
63802;DHT22;49949;43.060;25.624;2022-07-09T11:06:49;28.70;45.40
63802;DHT22;49949;43.060;25.624;2022-07-09T11:09:16;28.80;45.60
63802;DHT22;49949;43.060;25.624;2022-07-09T11:11:43;28.80;45.20
63802;DHT22;49949;43.060;25.624;2022-07-09T11:16:36;29.60;43.20
63802;DHT22;49949;43.060;25.624;2022-07-09T11:19:15;29.50;44.40
63802;DHT22;49949;43.060;25.624;2022-07-09T11:21:41;28.70;43.30
63802;DHT22;49949;43.060;25.624;2022-07-09T11:24:20;28.20;46.10
63802;DHT22;49949;43.060;25.624;2022-07-09T11:26:48;27.90;47.10
63802;DHT22;49949;43.060;25.624;2022-07-09T11:29:16;27.50;46.90
63802;DHT22;49949;43.060;25.624;2022-07-09T11:31:50;27.50;47.70
63802;DHT22;49949;43.060;25.624;2022-07-09T11:34:17;27.80;47.50
63802;DHT22;49949;43.060;25.624;2022-07-09T11:39:20;28.00;47.50
63802;DHT22;49949;43.060;25.624;2022-07-09T11:41:46;28.30;45.90
63802;DHT22;49949;43.060;25.624;2022-07-09T11:44:29;28.40;45.70
63802;DHT22;49949;43.060;25.624;2022-07-09T11:47:08;28.50;47.20
63802;DHT22;49949;43.060;25.624;2022-07-09T11:49:38;28.60;45.20
63802;DHT22;49949;43.060;25.624;2022-07-09T11:52:24;28.90;43.70
63802;DHT22;49949;43.060;25.624;2022-07-09T11:54:55;29.30;43.40
63802;DHT22;49949;43.060;25.624;2022-07-09T11:57:20;29.30;43.50
63802;DHT22;49949;43.060;25.624;2022-07-09T11:59:49;29.20;42.80
63802;DHT22;49949;43.060;25.624;2022-07-09T12:02:35;29.30;43.40
63802;DHT22;49949;43.060;25.624;2022-07-09T12:05:04;29.50;42.50
63802;DHT22;49949;43.060;25.624;2022-07-09T12:07:31;29.60;42.50
63802;DHT22;49949;43.060;25.624;2022-07-09T12:10:05;29.70;41.90
63802;DHT22;49949;43.060;25.624;2022-07-09T12:12:32;29.60;41.60
63802;DHT22;49949;43.060;25.624;2022-07-09T12:14:59;29.70;42.50
63802;DHT22;49949;43.060;25.624;2022-07-09T12:17:26;29.70;41.40
63802;DHT22;49949;43.060;25.624;2022-07-09T12:19:52;29.80;42.60
63802;DHT22;49949;43.060;25.624;2022-07-09T12:22:19;30.00;41.20
63802;DHT22;49949;43.060;25.624;2022-07-09T12:24:46;30.10;41.90
63802;DHT22;49949;43.060;25.624;2022-07-09T12:27:13;29.50;42.30
63802;DHT22;49949;43.060;25.624;2022-07-09T12:29:38;29.10;43.70
63802;DHT22;49949;43.060;25.624;2022-07-09T12:32:04;29.00;45.20
63802;DHT22;49949;43.060;25.624;2022-07-09T12:34:30;28.80;45.20
63802;DHT22;49949;43.060;25.624;2022-07-09T12:36:57;28.80;45.50
63802;DHT22;49949;43.060;25.624;2022-07-09T12:39:22;28.70;44.50
63802;DHT22;49949;43.060;25.624;2022-07-09T12:41:48;28.70;46.60
63802;DHT22;49949;43.060;25.624;2022-07-09T12:44:14;28.80;44.80
63802;DHT22;49949;43.060;25.624;2022-07-09T12:46:40;28.80;44.80
63802;DHT22;49949;43.060;25.624;2022-07-09T12:49:05;29.00;44.70
63802;DHT22;49949;43.060;25.624;2022-07-09T12:51:31;29.10;44.20
63802;DHT22;49949;43.060;25.624;2022-07-09T12:53:57;29.50;42.70
63802;DHT22;49949;43.060;25.624;2022-07-09T12:56:23;29.30;43.50
63802;DHT22;49949;43.060;25.624;2022-07-09T12:58:48;29.50;42.40
63802;DHT22;49949;43.060;25.624;2022-07-09T13:01:14;29.50;42.40
63802;DHT22;49949;43.060;25.624;2022-07-09T13:03:40;29.40;43.20
63802;DHT22;49949;43.060;25.624;2022-07-09T13:06:07;29.60;43.50
63802;DHT22;49949;43.060;25.624;2022-07-09T13:08:52;29.50;43.50
63802;DHT22;49949;43.060;25.624;2022-07-09T13:11:18;29.00;46.10
63802;DHT22;49949;43.060;25.624;2022-07-09T13:13:44;28.90;44.10
63802;DHT22;49949;43.060;25.624;2022-07-09T13:16:09;28.60;43.80
63802;DHT22;49949;43.060;25.624;2022-07-09T13:18:35;28.60;44.00
63802;DHT22;49949;43.060;25.624;2022-07-09T13:21:01;28.70;44.80
63802;DHT22;49949;43.060;25.624;2022-07-09T13:23:26;28.70;44.00
63802;DHT22;49949;43.060;25.624;2022-07-09T13:25:52;28.70;44.40
63802;DHT22;49949;43.060;25.624;2022-07-09T13:28:18;29.00;43.50
63802;DHT22;49949;43.060;25.624;2022-07-09T13:30:43;29.20;41.90
63802;DHT22;49949;43.060;25.624;2022-07-09T13:33:09;29.10;42.90
63802;DHT22;49949;43.060;25.624;2022-07-09T13:35:35;29.00;43.70
63802;DHT22;49949;43.060;25.624;2022-07-09T13:38:01;29.20;43.50
63802;DHT22;49949;43.060;25.624;2022-07-09T13:40:26;29.40;42.80
63802;DHT22;49949;43.060;25.624;2022-07-09T13:42:52;29.30;42.40
63802;DHT22;49949;43.060;25.624;2022-07-09T13:45:18;29.40;44.30
63802;DHT22;49949;43.060;25.624;2022-07-09T13:47:43;29.40;43.10
63802;DHT22;49949;43.060;25.624;2022-07-09T13:50:09;29.30;43.50
63802;DHT22;49949;43.060;25.624;2022-07-09T13:52:35;29.00;44.50
63802;DHT22;49949;43.060;25.624;2022-07-09T13:55:01;29.00;44.40
63802;DHT22;49949;43.060;25.624;2022-07-09T13:57:26;29.20;43.90
63802;DHT22;49949;43.060;25.624;2022-07-09T13:59:52;29.30;45.20
63802;DHT22;49949;43.060;25.624;2022-07-09T14:02:18;29.30;44.20
63802;DHT22;49949;43.060;25.624;2022-07-09T14:04:43;29.20;43.30
63802;DHT22;49949;43.060;25.624;2022-07-09T14:07:09;29.30;43.20
63802;DHT22;49949;43.060;25.624;2022-07-09T14:09:35;29.30;43.70
63802;DHT22;49949;43.060;25.624;2022-07-09T14:12:00;29.40;43.40
63802;DHT22;49949;43.060;25.624;2022-07-09T14:14:26;29.30;42.40
63802;DHT22;49949;43.060;25.624;2022-07-09T14:16:52;29.30;43.30
63802;DHT22;49949;43.060;25.624;2022-07-09T14:19:18;28.80;42.50
63802;DHT22;49949;43.060;25.624;2022-07-09T14:21:43;28.70;43.20
63802;DHT22;49949;43.060;25.624;2022-07-09T14:24:09;28.60;44.10
63802;DHT22;49949;43.060;25.624;2022-07-09T14:26:35;28.60;43.70
63802;DHT22;49949;43.060;25.624;2022-07-09T14:29:01;28.50;44.10
63802;DHT22;49949;43.060;25.624;2022-07-09T14:31:27;28.40;44.60
63802;DHT22;49949;43.060;25.624;2022-07-09T14:33:52;28.40;45.20
63802;DHT22;49949;43.060;25.624;2022-07-09T14:36:19;28.40;45.10
63802;DHT22;49949;43.060;25.624;2022-07-09T14:38:45;28.40;44.90
63802;DHT22;49949;43.060;25.624;2022-07-09T14:41:11;28.40;45.40
63802;DHT22;49949;43.060;25.624;2022-07-09T14:43:36;28.40;45.30
63802;DHT22;49949;43.060;25.624;2022-07-09T14:46:08;28.30;45.80
63802;DHT22;49949;43.060;25.624;2022-07-09T14:48:34;28.40;45.40
63802;DHT22;49949;43.060;25.624;2022-07-09T14:51:00;28.40;45.70
63802;DHT22;49949;43.060;25.624;2022-07-09T14:53:26;28.30;46.40
63802;DHT22;49949;43.060;25.624;2022-07-09T14:55:51;28.10;46.50
63802;DHT22;49949;43.060;25.624;2022-07-09T14:58:17;28.10;47.00
63802;DHT22;49949;43.060;25.624;2022-07-09T15:00:43;28.20;46.70
63802;DHT22;49949;43.060;25.624;2022-07-09T15:03:09;28.20;47.30
63802;DHT22;49949;43.060;25.624;2022-07-09T15:05:35;28.20;47.40
63802;DHT22;49949;43.060;25.624;2022-07-09T15:08:01;28.40;48.10
63802;DHT22;49949;43.060;25.624;2022-07-09T15:10:27;28.30;48.70
63802;DHT22;49949;43.060;25.624;2022-07-09T15:12:52;28.20;49.00
63802;DHT22;49949;43.060;25.624;2022-07-09T15:15:18;28.10;49.40
63802;DHT22;49949;43.060;25.624;2022-07-09T15:17:44;27.90;49.50
63802;DHT22;49949;43.060;25.624;2022-07-09T15:20:10;27.80;50.00
63802;DHT22;49949;43.060;25.624;2022-07-09T15:22:36;27.80;50.20